sensor_id;sensor_type;location;lat;lon;timestamp;P1;durP1;ratioP1;P2;durP2;ratioP2
3121;SDS011;1571;52.524;14.104;2022-08-23T00:01:21;5.73;;;5.33;;
3121;SDS011;1571;52.524;14.104;2022-08-23T00:03:54;7.93;;;5.53;;
3121;SDS011;1571;52.524;14.104;2022-08-23T00:06:24;6.90;;;4.97;;
3121;SDS011;1571;52.524;14.104;2022-08-23T00:08:52;7.63;;;5.03;;
3121;SDS011;1571;52.524;14.104;2022-08-23T00:11:25;5.13;;;4.63;;
3121;SDS011;1571;52.524;14.104;2022-08-23T00:13:56;7.10;;;5.63;;
3121;SDS011;1571;52.524;14.104;2022-08-23T00:16:26;5.20;;;4.50;;
3121;SDS011;1571;52.524;14.104;2022-08-23T00:18:55;5.87;;;4.80;;
3121;SDS011;1571;52.524;14.104;2022-08-23T00:21:25;5.23;;;4.93;;
3121;SDS011;1571;52.524;14.104;2022-08-23T00:23:55;5.73;;;5.17;;
3121;SDS011;1571;52.524;14.104;2022-08-23T00:26:23;6.27;;;5.30;;
3121;SDS011;1571;52.524;14.104;2022-08-23T00:28:52;8.13;;;6.00;;
3121;SDS011;1571;52.524;14.104;2022-08-23T00:31:20;11.47;;;5.53;;
3121;SDS011;1571;52.524;14.104;2022-08-23T00:33:49;7.37;;;5.27;;
3121;SDS011;1571;52.524;14.104;2022-08-23T00:36:18;7.67;;;6.90;;
3121;SDS011;1571;52.524;14.104;2022-08-23T00:38:46;6.23;;;5.67;;
3121;SDS011;1571;52.524;14.104;2022-08-23T00:41:15;6.30;;;5.90;;
3121;SDS011;1571;52.524;14.104;2022-08-23T00:43:43;11.33;;;6.23;;
3121;SDS011;1571;52.524;14.104;2022-08-23T00:46:33;5.80;;;5.20;;
3121;SDS011;1571;52.524;14.104;2022-08-23T00:49:27;7.00;;;6.47;;
3121;SDS011;1571;52.524;14.104;2022-08-23T00:51:58;6.90;;;6.20;;
3121;SDS011;1571;52.524;14.104;2022-08-23T00:54:33;9.43;;;5.47;;
3121;SDS011;1571;52.524;14.104;2022-08-23T00:57:05;8.33;;;6.13;;
3121;SDS011;1571;52.524;14.104;2022-08-23T00:59:38;9.47;;;6.43;;
3121;SDS011;1571;52.524;14.104;2022-08-23T01:02:07;12.13;;;7.83;;
3121;SDS011;1571;52.524;14.104;2022-08-23T01:04:38;8.97;;;6.13;;
3121;SDS011;1571;52.524;14.104;2022-08-23T01:07:11;7.87;;;7.17;;
3121;SDS011;1571;52.524;14.104;2022-08-23T01:09:46;7.63;;;6.90;;
3121;SDS011;1571;52.524;14.104;2022-08-23T01:12:17;14.67;;;7.97;;
3121;SDS011;1571;52.524;14.104;2022-08-23T01:14:59;14.80;;;8.10;;
3121;SDS011;1571;52.524;14.104;2022-08-23T01:17:31;9.23;;;8.27;;
3121;SDS011;1571;52.524;14.104;2022-08-23T01:20:06;8.90;;;7.43;;
3121;SDS011;1571;52.524;14.104;2022-08-23T01:22:37;12.30;;;7.67;;
3121;SDS011;1571;52.524;14.104;2022-08-23T01:25:11;13.90;;;7.83;;
3121;SDS011;1571;52.524;14.104;2022-08-23T01:27:43;17.10;;;7.77;;
3121;SDS011;1571;52.524;14.104;2022-08-23T01:30:17;12.90;;;7.00;;
3121;SDS011;1571;52.524;14.104;2022-08-23T01:32:50;7.80;;;6.20;;
3121;SDS011;1571;52.524;14.104;2022-08-23T01:35:22;7.80;;;7.17;;
3121;SDS011;1571;52.524;14.104;2022-08-23T01:37:56;6.97;;;6.37;;
3121;SDS011;1571;52.524;14.104;2022-08-23T01:40:27;7.27;;;6.57;;
3121;SDS011;1571;52.524;14.104;2022-08-23T01:42:55;9.40;;;6.63;;
3121;SDS011;1571;52.524;14.104;2022-08-23T01:45:23;7.30;;;6.47;;
3121;SDS011;1571;52.524;14.104;2022-08-23T01:47:52;8.60;;;6.80;;
3121;SDS011;1571;52.524;14.104;2022-08-23T01:50:22;8.40;;;7.60;;
3121;SDS011;1571;52.524;14.104;2022-08-23T01:52:52;8.60;;;7.07;;
3121;SDS011;1571;52.524;14.104;2022-08-23T01:55:22;6.87;;;6.17;;
3121;SDS011;1571;52.524;14.104;2022-08-23T01:57:54;8.80;;;6.40;;
3121;SDS011;1571;52.524;14.104;2022-08-23T02:00:26;8.73;;;6.50;;
3121;SDS011;1571;52.524;14.104;2022-08-23T02:02:56;9.50;;;6.60;;
3121;SDS011;1571;52.524;14.104;2022-08-23T02:05:25;6.70;;;5.30;;
3121;SDS011;1571;52.524;14.104;2022-08-23T02:07:54;8.17;;;5.77;;
3121;SDS011;1571;52.524;14.104;2022-08-23T02:10:22;8.23;;;7.43;;
3121;SDS011;1571;52.524;14.104;2022-08-23T02:12:50;10.40;;;6.90;;
3121;SDS011;1571;52.524;14.104;2022-08-23T02:15:22;6.47;;;5.80;;
3121;SDS011;1571;52.524;14.104;2022-08-23T02:17:50;7.80;;;6.10;;
3121;SDS011;1571;52.524;14.104;2022-08-23T02:20:21;8.27;;;6.03;;
3121;SDS011;1571;52.524;14.104;2022-08-23T02:22:50;9.13;;;6.30;;
3121;SDS011;1571;52.524;14.104;2022-08-23T02:25:18;6.57;;;5.97;;
3121;SDS011;1571;52.524;14.104;2022-08-23T02:27:46;10.33;;;6.40;;
3121;SDS011;1571;52.524;14.104;2022-08-23T02:30:15;7.00;;;6.33;;
3121;SDS011;1571;52.524;14.104;2022-08-23T02:32:45;6.90;;;6.27;;
3121;SDS011;1571;52.524;14.104;2022-08-23T02:35:14;12.67;;;7.43;;
3121;SDS011;1571;52.524;14.104;2022-08-23T02:37:42;8.37;;;5.67;;
3121;SDS011;1571;52.524;14.104;2022-08-23T02:40:10;9.23;;;6.70;;
3121;SDS011;1571;52.524;14.104;2022-08-23T02:42:39;7.90;;;7.00;;
3121;SDS011;1571;52.524;14.104;2022-08-23T02:45:08;7.43;;;6.53;;
3121;SDS011;1571;52.524;14.104;2022-08-23T02:47:44;8.80;;;6.27;;
3121;SDS011;1571;52.524;14.104;2022-08-23T02:50:19;11.40;;;6.90;;
3121;SDS011;1571;52.524;14.104;2022-08-23T02:52:47;9.07;;;6.83;;
3121;SDS011;1571;52.524;14.104;2022-08-23T02:55:16;10.63;;;7.50;;
3121;SDS011;1571;52.524;14.104;2022-08-23T02:57:45;8.27;;;7.43;;
3121;SDS011;1571;52.524;14.104;2022-08-23T03:00:14;7.53;;;6.80;;
3121;SDS011;1571;52.524;14.104;2022-08-23T03:02:46;8.43;;;6.73;;
3121;SDS011;1571;52.524;14.104;2022-08-23T03:05:15;9.47;;;6.10;;
3121;SDS011;1571;52.524;14.104;2022-08-23T03:07:43;8.10;;;6.70;;
3121;SDS011;1571;52.524;14.104;2022-08-23T03:10:12;6.83;;;6.33;;
3121;SDS011;1571;52.524;14.104;2022-08-23T03:12:48;8.80;;;7.27;;
3121;SDS011;1571;52.524;14.104;2022-08-23T03:15:18;7.87;;;7.17;;
3121;SDS011;1571;52.524;14.104;2022-08-23T03:17:48;8.13;;;7.30;;
3121;SDS011;1571;52.524;14.104;2022-08-23T03:20:17;7.93;;;6.73;;
3121;SDS011;1571;52.524;14.104;2022-08-23T03:22:46;13.27;;;8.23;;
3121;SDS011;1571;52.524;14.104;2022-08-23T03:25:22;7.63;;;6.87;;
3121;SDS011;1571;52.524;14.104;2022-08-23T03:28:01;9.37;;;7.17;;
3121;SDS011;1571;52.524;14.104;2022-08-23T03:30:32;9.30;;;6.87;;
3121;SDS011;1571;52.524;14.104;2022-08-23T03:33:03;10.20;;;7.63;;
3121;SDS011;1571;52.524;14.104;2022-08-23T03:35:31;10.27;;;6.70;;
3121;SDS011;1571;52.524;14.104;2022-08-23T03:38:01;7.07;;;6.50;;
3121;SDS011;1571;52.524;14.104;2022-08-23T03:40:29;8.70;;;6.37;;
3121;SDS011;1571;52.524;14.104;2022-08-23T03:42:59;16.80;;;8.03;;
3121;SDS011;1571;52.524;14.104;2022-08-23T03:45:29;8.37;;;7.67;;
3121;SDS011;1571;52.524;14.104;2022-08-23T03:47:57;10.07;;;8.20;;
3121;SDS011;1571;52.524;14.104;2022-08-23T03:50:27;9.27;;;7.27;;
3121;SDS011;1571;52.524;14.104;2022-08-23T03:52:56;7.73;;;6.63;;
3121;SDS011;1571;52.524;14.104;2022-08-23T03:55:24;7.70;;;6.20;;
3121;SDS011;1571;52.524;14.104;2022-08-23T03:57:52;9.33;;;7.50;;
3121;SDS011;1571;52.524;14.104;2022-08-23T04:00:21;10.37;;;7.07;;
3121;SDS011;1571;52.524;14.104;2022-08-23T04:02:51;11.13;;;7.97;;
3121;SDS011;1571;52.524;14.104;2022-08-23T04:05:21;8.37;;;7.50;;
3121;SDS011;1571;52.524;14.104;2022-08-23T04:07:50;8.53;;;7.80;;
3121;SDS011;1571;52.524;14.104;2022-08-23T04:10:22;11.37;;;7.50;;
3121;SDS011;1571;52.524;14.104;2022-08-23T04:12:53;7.97;;;7.17;;
3121;SDS011;1571;52.524;14.104;2022-08-23T04:15:23;9.30;;;6.70;;
3121;SDS011;1571;52.524;14.104;2022-08-23T04:17:51;8.00;;;6.80;;
3121;SDS011;1571;52.524;14.104;2022-08-23T04:20:20;7.93;;;6.83;;
3121;SDS011;1571;52.524;14.104;2022-08-23T04:22:56;11.10;;;7.23;;
3121;SDS011;1571;52.524;14.104;2022-08-23T04:25:26;8.57;;;7.67;;
3121;SDS011;1571;52.524;14.104;2022-08-23T04:28:02;7.50;;;6.80;;
3121;SDS011;1571;52.524;14.104;2022-08-23T04:30:32;8.40;;;7.53;;
3121;SDS011;1571;52.524;14.104;2022-08-23T04:33:02;11.57;;;6.93;;
3121;SDS011;1571;52.524;14.104;2022-08-23T04:35:37;8.10;;;6.03;;
3121;SDS011;1571;52.524;14.104;2022-08-23T04:38:09;8.90;;;8.00;;
3121;SDS011;1571;52.524;14.104;2022-08-23T04:40:52;8.33;;;7.37;;
3121;SDS011;1571;52.524;14.104;2022-08-23T04:43:37;9.13;;;7.40;;
3121;SDS011;1571;52.524;14.104;2022-08-23T04:46:06;7.60;;;6.63;;
3121;SDS011;1571;52.524;14.104;2022-08-23T04:48:36;14.60;;;7.60;;
3121;SDS011;1571;52.524;14.104;2022-08-23T04:51:04;12.23;;;7.03;;
3121;SDS011;1571;52.524;14.104;2022-08-23T04:53:37;7.50;;;6.73;;
3121;SDS011;1571;52.524;14.104;2022-08-23T04:56:37;14.07;;;7.97;;
3121;SDS011;1571;52.524;14.104;2022-08-23T04:59:08;13.23;;;7.27;;
3121;SDS011;1571;52.524;14.104;2022-08-23T05:01:40;8.37;;;7.53;;
3121;SDS011;1571;52.524;14.104;2022-08-23T05:04:12;12.90;;;7.20;;
3121;SDS011;1571;52.524;14.104;2022-08-23T05:06:42;8.50;;;7.70;;
3121;SDS011;1571;52.524;14.104;2022-08-23T05:09:12;7.77;;;6.30;;
3121;SDS011;1571;52.524;14.104;2022-08-23T05:11:46;10.60;;;6.87;;
3121;SDS011;1571;52.524;14.104;2022-08-23T05:14:15;8.17;;;7.40;;
3121;SDS011;1571;52.524;14.104;2022-08-23T05:16:44;10.23;;;7.20;;
3121;SDS011;1571;52.524;14.104;2022-08-23T05:19:13;7.53;;;6.30;;
3121;SDS011;1571;52.524;14.104;2022-08-23T05:21:43;7.60;;;6.80;;
3121;SDS011;1571;52.524;14.104;2022-08-23T05:24:14;7.30;;;6.60;;
3121;SDS011;1571;52.524;14.104;2022-08-23T05:26:45;9.23;;;7.67;;
3121;SDS011;1571;52.524;14.104;2022-08-23T05:29:14;7.60;;;7.00;;
3121;SDS011;1571;52.524;14.104;2022-08-23T05:31:46;10.00;;;7.57;;
3121;SDS011;1571;52.524;14.104;2022-08-23T05:34:16;8.93;;;7.43;;
3121;SDS011;1571;52.524;14.104;2022-08-23T05:36:53;10.10;;;8.10;;
3121;SDS011;1571;52.524;14.104;2022-08-23T05:39:38;8.70;;;7.90;;
3121;SDS011;1571;52.524;14.104;2022-08-23T05:42:09;13.77;;;7.50;;
3121;SDS011;1571;52.524;14.104;2022-08-23T05:44:39;7.60;;;6.80;;
3121;SDS011;1571;52.524;14.104;2022-08-23T05:47:10;10.60;;;7.67;;
3121;SDS011;1571;52.524;14.104;2022-08-23T05:50:00;7.27;;;6.67;;
3121;SDS011;1571;52.524;14.104;2022-08-23T05:52:32;13.10;;;7.03;;
3121;SDS011;1571;52.524;14.104;2022-08-23T05:55:03;9.00;;;6.97;;
3121;SDS011;1571;52.524;14.104;2022-08-23T05:57:57;8.53;;;7.13;;
3121;SDS011;1571;52.524;14.104;2022-08-23T06:00:26;8.30;;;7.47;;
3121;SDS011;1571;52.524;14.104;2022-08-23T06:03:06;9.80;;;6.90;;
3121;SDS011;1571;52.524;14.104;2022-08-23T06:05:37;7.70;;;6.40;;
3121;SDS011;1571;52.524;14.104;2022-08-23T06:08:07;6.77;;;6.27;;
3121;SDS011;1571;52.524;14.104;2022-08-23T06:10:37;9.17;;;6.93;;
3121;SDS011;1571;52.524;14.104;2022-08-23T06:13:25;13.40;;;6.43;;
3121;SDS011;1571;52.524;14.104;2022-08-23T06:15:54;7.23;;;5.77;;
3121;SDS011;1571;52.524;14.104;2022-08-23T06:18:24;6.60;;;6.00;;
3121;SDS011;1571;52.524;14.104;2022-08-23T06:21:01;10.70;;;5.70;;
3121;SDS011;1571;52.524;14.104;2022-08-23T06:23:39;6.73;;;5.93;;
3121;SDS011;1571;52.524;14.104;2022-08-23T06:26:10;6.07;;;5.57;;
3121;SDS011;1571;52.524;14.104;2022-08-23T06:28:40;8.33;;;6.63;;
3121;SDS011;1571;52.524;14.104;2022-08-23T06:31:17;10.30;;;5.40;;
3121;SDS011;1571;52.524;14.104;2022-08-23T06:34:12;10.87;;;5.63;;
3121;SDS011;1571;52.524;14.104;2022-08-23T06:37:06;6.90;;;5.50;;
3121;SDS011;1571;52.524;14.104;2022-08-23T06:39:57;5.80;;;4.60;;
3121;SDS011;1571;52.524;14.104;2022-08-23T06:42:38;7.40;;;5.50;;
3121;SDS011;1571;52.524;14.104;2022-08-23T06:45:08;9.03;;;5.90;;
3121;SDS011;1571;52.524;14.104;2022-08-23T06:47:41;7.97;;;5.40;;
3121;SDS011;1571;52.524;14.104;2022-08-23T06:50:09;5.67;;;5.17;;
3121;SDS011;1571;52.524;14.104;2022-08-23T06:53:10;6.30;;;5.70;;
3121;SDS011;1571;52.524;14.104;2022-08-23T06:55:47;8.23;;;5.10;;
3121;SDS011;1571;52.524;14.104;2022-08-23T06:58:23;6.60;;;5.70;;
3121;SDS011;1571;52.524;14.104;2022-08-23T07:01:10;5.97;;;4.60;;
3121;SDS011;1571;52.524;14.104;2022-08-23T07:04:16;8.17;;;4.97;;
3121;SDS011;1571;52.524;14.104;2022-08-23T07:06:49;5.27;;;4.90;;
3121;SDS011;1571;52.524;14.104;2022-08-23T07:09:18;7.40;;;4.90;;
3121;SDS011;1571;52.524;14.104;2022-08-23T07:11:46;6.77;;;4.87;;
3121;SDS011;1571;52.524;14.104;2022-08-23T07:14:17;6.60;;;4.83;;
3121;SDS011;1571;52.524;14.104;2022-08-23T07:16:48;5.80;;;4.40;;
3121;SDS011;1571;52.524;14.104;2022-08-23T07:19:19;5.40;;;4.90;;
3121;SDS011;1571;52.524;14.104;2022-08-23T07:21:55;8.90;;;4.00;;
3121;SDS011;1571;52.524;14.104;2022-08-23T07:24:24;5.30;;;4.80;;
3121;SDS011;1571;52.524;14.104;2022-08-23T07:27:00;9.73;;;3.60;;
3121;SDS011;1571;52.524;14.104;2022-08-23T07:29:35;4.80;;;4.30;;
3121;SDS011;1571;52.524;14.104;2022-08-23T07:32:05;7.43;;;4.67;;
3121;SDS011;1571;52.524;14.104;2022-08-23T07:34:35;5.93;;;4.20;;
3121;SDS011;1571;52.524;14.104;2022-08-23T07:37:03;9.27;;;4.53;;
3121;SDS011;1571;52.524;14.104;2022-08-23T07:39:42;9.07;;;5.40;;
3121;SDS011;1571;52.524;14.104;2022-08-23T07:42:12;4.43;;;3.90;;
3121;SDS011;1571;52.524;14.104;2022-08-23T07:44:53;6.43;;;3.70;;
3121;SDS011;1571;52.524;14.104;2022-08-23T07:47:24;5.20;;;3.60;;
3121;SDS011;1571;52.524;14.104;2022-08-23T07:49:55;4.10;;;3.77;;
3121;SDS011;1571;52.524;14.104;2022-08-23T07:52:24;5.33;;;3.57;;
3121;SDS011;1571;52.524;14.104;2022-08-23T07:54:53;3.73;;;3.10;;
3121;SDS011;1571;52.524;14.104;2022-08-23T07:57:45;6.33;;;4.17;;
3121;SDS011;1571;52.524;14.104;2022-08-23T08:00:34;5.53;;;3.30;;
3121;SDS011;1571;52.524;14.104;2022-08-23T08:03:25;4.20;;;3.70;;
3121;SDS011;1571;52.524;14.104;2022-08-23T08:06:06;7.20;;;3.83;;
3121;SDS011;1571;52.524;14.104;2022-08-23T08:08:35;4.40;;;3.47;;
3121;SDS011;1571;52.524;14.104;2022-08-23T08:11:04;5.33;;;3.67;;
3121;SDS011;1571;52.524;14.104;2022-08-23T08:13:32;4.00;;;3.47;;
3121;SDS011;1571;52.524;14.104;2022-08-23T08:16:03;8.33;;;4.30;;
3121;SDS011;1571;52.524;14.104;2022-08-23T08:18:33;4.27;;;3.30;;
3121;SDS011;1571;52.524;14.104;2022-08-23T08:21:21;8.03;;;3.70;;
3121;SDS011;1571;52.524;14.104;2022-08-23T08:24:00;5.10;;;3.77;;
3121;SDS011;1571;52.524;14.104;2022-08-23T08:26:45;4.13;;;3.83;;
3121;SDS011;1571;52.524;14.104;2022-08-23T08:29:15;3.93;;;3.23;;
3121;SDS011;1571;52.524;14.104;2022-08-23T08:31:45;4.17;;;3.63;;
3121;SDS011;1571;52.524;14.104;2022-08-23T08:34:20;6.40;;;3.40;;
3121;SDS011;1571;52.524;14.104;2022-08-23T08:36:49;3.43;;;2.70;;
3121;SDS011;1571;52.524;14.104;2022-08-23T08:39:22;5.30;;;3.63;;
3121;SDS011;1571;52.524;14.104;2022-08-23T08:41:59;3.63;;;3.43;;
3121;SDS011;1571;52.524;14.104;2022-08-23T08:44:41;3.93;;;3.53;;
3121;SDS011;1571;52.524;14.104;2022-08-23T08:47:18;4.30;;;3.90;;
3121;SDS011;1571;52.524;14.104;2022-08-23T08:50:01;4.20;;;2.77;;
3121;SDS011;1571;52.524;14.104;2022-08-23T08:52:36;3.83;;;3.00;;
3121;SDS011;1571;52.524;14.104;2022-08-23T08:55:16;5.80;;;4.00;;
3121;SDS011;1571;52.524;14.104;2022-08-23T08:57:50;7.67;;;3.97;;
3121;SDS011;1571;52.524;14.104;2022-08-23T09:00:22;9.13;;;3.50;;
3121;SDS011;1571;52.524;14.104;2022-08-23T09:02:54;7.43;;;3.67;;
3121;SDS011;1571;52.524;14.104;2022-08-23T09:05:29;3.10;;;2.77;;
3121;SDS011;1571;52.524;14.104;2022-08-23T09:08:05;6.00;;;3.43;;
3121;SDS011;1571;52.524;14.104;2022-08-23T09:10:52;4.77;;;3.17;;
3121;SDS011;1571;52.524;14.104;2022-08-23T09:13:34;5.30;;;3.60;;
3121;SDS011;1571;52.524;14.104;2022-08-23T09:16:22;5.90;;;2.87;;
3121;SDS011;1571;52.524;14.104;2022-08-23T09:19:00;4.60;;;2.83;;
3121;SDS011;1571;52.524;14.104;2022-08-23T09:21:30;4.13;;;3.20;;
3121;SDS011;1571;52.524;14.104;2022-08-23T09:24:07;5.27;;;3.90;;
3121;SDS011;1571;52.524;14.104;2022-08-23T09:26:47;5.10;;;3.80;;
3121;SDS011;1571;52.524;14.104;2022-08-23T09:29:20;3.73;;;3.20;;
3121;SDS011;1571;52.524;14.104;2022-08-23T09:31:51;3.20;;;3.00;;
3121;SDS011;1571;52.524;14.104;2022-08-23T09:34:39;3.60;;;2.43;;
3121;SDS011;1571;52.524;14.104;2022-08-23T09:37:13;6.83;;;3.60;;
3121;SDS011;1571;52.524;14.104;2022-08-23T09:39:45;8.10;;;3.00;;
3121;SDS011;1571;52.524;14.104;2022-08-23T09:42:26;6.13;;;3.20;;
3121;SDS011;1571;52.524;14.104;2022-08-23T09:44:58;7.27;;;3.00;;
3121;SDS011;1571;52.524;14.104;2022-08-23T09:47:31;4.47;;;2.60;;
3121;SDS011;1571;52.524;14.104;2022-08-23T09:50:14;9.27;;;3.73;;
3121;SDS011;1571;52.524;14.104;2022-08-23T09:52:44;7.90;;;3.27;;
3121;SDS011;1571;52.524;14.104;2022-08-23T09:55:25;4.00;;;2.77;;
3121;SDS011;1571;52.524;14.104;2022-08-23T09:57:53;4.50;;;3.20;;
3121;SDS011;1571;52.524;14.104;2022-08-23T10:00:23;5.93;;;3.13;;
3121;SDS011;1571;52.524;14.104;2022-08-23T10:02:54;4.77;;;3.20;;
3121;SDS011;1571;52.524;14.104;2022-08-23T10:05:50;4.37;;;3.67;;
3121;SDS011;1571;52.524;14.104;2022-08-23T10:08:23;11.03;;;4.20;;
3121;SDS011;1571;52.524;14.104;2022-08-23T10:10:55;6.30;;;3.83;;
3121;SDS011;1571;52.524;14.104;2022-08-23T10:13:31;4.07;;;3.40;;
3121;SDS011;1571;52.524;14.104;2022-08-23T10:16:04;5.60;;;3.30;;
3121;SDS011;1571;52.524;14.104;2022-08-23T10:18:55;6.40;;;3.00;;
3121;SDS011;1571;52.524;14.104;2022-08-23T10:21:36;3.70;;;3.40;;
3121;SDS011;1571;52.524;14.104;2022-08-23T10:24:12;4.30;;;2.90;;
3121;SDS011;1571;52.524;14.104;2022-08-23T10:26:52;3.40;;;2.37;;
3121;SDS011;1571;52.524;14.104;2022-08-23T10:29:33;3.60;;;2.30;;
3121;SDS011;1571;52.524;14.104;2022-08-23T10:32:08;2.80;;;2.30;;
3121;SDS011;1571;52.524;14.104;2022-08-23T10:34:57;3.40;;;1.67;;
3121;SDS011;1571;52.524;14.104;2022-08-23T10:37:51;3.30;;;1.80;;
3121;SDS011;1571;52.524;14.104;2022-08-23T10:40:32;3.67;;;1.50;;
3121;SDS011;1571;52.524;14.104;2022-08-23T10:43:08;7.23;;;2.00;;
3121;SDS011;1571;52.524;14.104;2022-08-23T10:45:44;2.90;;;1.40;;
3121;SDS011;1571;52.524;14.104;2022-08-23T10:48:26;4.20;;;1.67;;
3121;SDS011;1571;52.524;14.104;2022-08-23T10:50:59;2.50;;;1.30;;
3121;SDS011;1571;52.524;14.104;2022-08-23T10:53:35;4.50;;;1.50;;
3121;SDS011;1571;52.524;14.104;2022-08-23T10:56:12;4.50;;;1.37;;
3121;SDS011;1571;52.524;14.104;2022-08-23T10:58:52;4.73;;;1.80;;
3121;SDS011;1571;52.524;14.104;2022-08-23T11:01:24;3.20;;;1.60;;
3121;SDS011;1571;52.524;14.104;2022-08-23T11:03:59;3.33;;;1.60;;
3121;SDS011;1571;52.524;14.104;2022-08-23T11:06:42;8.73;;;3.20;;
3121;SDS011;1571;52.524;14.104;2022-08-23T11:12:24;5.33;;;2.30;;
3121;SDS011;1571;52.524;14.104;2022-08-23T11:15:03;2.47;;;1.40;;
3121;SDS011;1571;52.524;14.104;2022-08-23T11:17:50;4.83;;;1.43;;
3121;SDS011;1571;52.524;14.104;2022-08-23T11:23:40;2.23;;;1.90;;
3121;SDS011;1571;52.524;14.104;2022-08-23T11:26:11;5.20;;;1.20;;
3121;SDS011;1571;52.524;14.104;2022-08-23T11:29:40;1.67;;;1.20;;
3121;SDS011;1571;52.524;14.104;2022-08-23T11:32:31;2.07;;;1.73;;
3121;SDS011;1571;52.524;14.104;2022-08-23T11:35:07;2.40;;;1.83;;
3121;SDS011;1571;52.524;14.104;2022-08-23T11:37:49;3.70;;;2.00;;
3121;SDS011;1571;52.524;14.104;2022-08-23T11:40:37;5.00;;;1.53;;
3121;SDS011;1571;52.524;14.104;2022-08-23T11:43:34;3.70;;;1.80;;
3121;SDS011;1571;52.524;14.104;2022-08-23T11:52:23;4.53;;;2.30;;
3121;SDS011;1571;52.524;14.104;2022-08-23T11:55:13;3.57;;;1.83;;
3121;SDS011;1571;52.524;14.104;2022-08-23T11:57:55;3.10;;;1.90;;
3121;SDS011;1571;52.524;14.104;2022-08-23T12:00:50;1.67;;;1.40;;
3121;SDS011;1571;52.524;14.104;2022-08-23T12:03:23;3.83;;;1.20;;
3121;SDS011;1571;52.524;14.104;2022-08-23T12:06:06;2.73;;;1.50;;
3121;SDS011;1571;52.524;14.104;2022-08-23T12:08:50;1.77;;;1.60;;
3121;SDS011;1571;52.524;14.104;2022-08-23T12:11:22;9.67;;;2.03;;
3121;SDS011;1571;52.524;14.104;2022-08-23T12:13:59;2.53;;;1.20;;
3121;SDS011;1571;52.524;14.104;2022-08-23T12:16:48;6.70;;;2.00;;
3121;SDS011;1571;52.524;14.104;2022-08-23T12:19:26;3.40;;;1.83;;
3121;SDS011;1571;52.524;14.104;2022-08-23T12:22:06;3.33;;;1.30;;
3121;SDS011;1571;52.524;14.104;2022-08-23T12:24:40;2.97;;;2.70;;
3121;SDS011;1571;52.524;14.104;2022-08-23T12:27:12;2.07;;;1.50;;
3121;SDS011;1571;52.524;14.104;2022-08-23T12:29:57;2.73;;;1.40;;
3121;SDS011;1571;52.524;14.104;2022-08-23T12:32:31;7.00;;;1.77;;
3121;SDS011;1571;52.524;14.104;2022-08-23T12:35:14;1.93;;;1.77;;
3121;SDS011;1571;52.524;14.104;2022-08-23T12:37:52;6.20;;;2.27;;
3121;SDS011;1571;52.524;14.104;2022-08-23T12:40:29;3.73;;;1.40;;
3121;SDS011;1571;52.524;14.104;2022-08-23T12:43:01;2.17;;;1.43;;
3121;SDS011;1571;52.524;14.104;2022-08-23T12:45:37;4.87;;;1.70;;
3121;SDS011;1571;52.524;14.104;2022-08-23T12:48:08;2.60;;;1.37;;
3121;SDS011;1571;52.524;14.104;2022-08-23T12:50:40;5.00;;;1.87;;
3121;SDS011;1571;52.524;14.104;2022-08-23T12:53:10;2.53;;;1.53;;
3121;SDS011;1571;52.524;14.104;2022-08-23T12:55:41;1.90;;;1.33;;
3121;SDS011;1571;52.524;14.104;2022-08-23T12:58:12;8.40;;;1.60;;
3121;SDS011;1571;52.524;14.104;2022-08-23T13:00:50;6.10;;;1.60;;
3121;SDS011;1571;52.524;14.104;2022-08-23T13:03:22;6.63;;;1.50;;
3121;SDS011;1571;52.524;14.104;2022-08-23T13:05:54;2.80;;;1.90;;
3121;SDS011;1571;52.524;14.104;2022-08-23T13:08:29;5.90;;;1.77;;
3121;SDS011;1571;52.524;14.104;2022-08-23T13:11:01;3.17;;;1.50;;
3121;SDS011;1571;52.524;14.104;2022-08-23T13:13:36;2.27;;;1.20;;
3121;SDS011;1571;52.524;14.104;2022-08-23T13:19:13;4.10;;;1.47;;
3121;SDS011;1571;52.524;14.104;2022-08-23T13:21:44;5.07;;;1.83;;
3121;SDS011;1571;52.524;14.104;2022-08-23T13:24:26;2.13;;;1.13;;
3121;SDS011;1571;52.524;14.104;2022-08-23T13:27:16;2.60;;;1.30;;
3121;SDS011;1571;52.524;14.104;2022-08-23T13:29:48;3.87;;;1.30;;
3121;SDS011;1571;52.524;14.104;2022-08-23T13:32:25;6.73;;;2.53;;
3121;SDS011;1571;52.524;14.104;2022-08-23T13:37:52;2.87;;;1.53;;
3121;SDS011;1571;52.524;14.104;2022-08-23T13:40:24;2.00;;;1.63;;
3121;SDS011;1571;52.524;14.104;2022-08-23T13:42:56;4.63;;;1.60;;
3121;SDS011;1571;52.524;14.104;2022-08-23T13:45:26;3.20;;;1.77;;
3121;SDS011;1571;52.524;14.104;2022-08-23T13:47:58;3.57;;;1.70;;
3121;SDS011;1571;52.524;14.104;2022-08-23T13:50:30;1.47;;;1.27;;
3121;SDS011;1571;52.524;14.104;2022-08-23T13:53:02;4.20;;;1.80;;
3121;SDS011;1571;52.524;14.104;2022-08-23T13:55:47;8.37;;;3.23;;
3121;SDS011;1571;52.524;14.104;2022-08-23T13:58:23;3.80;;;1.70;;
3121;SDS011;1571;52.524;14.104;2022-08-23T14:00:54;2.77;;;1.57;;
3121;SDS011;1571;52.524;14.104;2022-08-23T14:03:25;2.73;;;1.77;;
3121;SDS011;1571;52.524;14.104;2022-08-23T14:05:54;2.10;;;1.57;;
3121;SDS011;1571;52.524;14.104;2022-08-23T14:08:24;4.97;;;2.10;;
3121;SDS011;1571;52.524;14.104;2022-08-23T14:10:52;3.00;;;2.00;;
3121;SDS011;1571;52.524;14.104;2022-08-23T14:13:20;2.63;;;1.63;;
3121;SDS011;1571;52.524;14.104;2022-08-23T14:15:54;4.00;;;1.50;;
3121;SDS011;1571;52.524;14.104;2022-08-23T14:18:47;4.00;;;1.60;;
3121;SDS011;1571;52.524;14.104;2022-08-23T14:21:35;5.30;;;1.87;;
3121;SDS011;1571;52.524;14.104;2022-08-23T14:24:05;2.40;;;1.70;;
3121;SDS011;1571;52.524;14.104;2022-08-23T14:26:34;6.33;;;2.13;;
3121;SDS011;1571;52.524;14.104;2022-08-23T14:29:02;2.43;;;1.50;;
3121;SDS011;1571;52.524;14.104;2022-08-23T14:31:31;2.17;;;1.80;;
3121;SDS011;1571;52.524;14.104;2022-08-23T14:33:59;5.77;;;2.50;;
3121;SDS011;1571;52.524;14.104;2022-08-23T14:36:28;2.80;;;1.53;;
3121;SDS011;1571;52.524;14.104;2022-08-23T14:38:56;5.47;;;1.80;;
3121;SDS011;1571;52.524;14.104;2022-08-23T14:41:26;2.50;;;1.40;;
3121;SDS011;1571;52.524;14.104;2022-08-23T14:43:55;4.07;;;1.77;;
3121;SDS011;1571;52.524;14.104;2022-08-23T14:46:24;6.07;;;1.70;;
3121;SDS011;1571;52.524;14.104;2022-08-23T14:48:52;4.63;;;2.60;;
3121;SDS011;1571;52.524;14.104;2022-08-23T14:51:22;2.70;;;2.00;;
3121;SDS011;1571;52.524;14.104;2022-08-23T14:53:52;8.93;;;1.90;;
3121;SDS011;1571;52.524;14.104;2022-08-23T14:56:21;1.47;;;1.20;;
3121;SDS011;1571;52.524;14.104;2022-08-23T14:58:51;3.00;;;1.40;;
3121;SDS011;1571;52.524;14.104;2022-08-23T15:01:19;3.03;;;1.63;;
3121;SDS011;1571;52.524;14.104;2022-08-23T15:03:48;3.83;;;1.73;;
3121;SDS011;1571;52.524;14.104;2022-08-23T15:06:17;3.17;;;2.00;;
3121;SDS011;1571;52.524;14.104;2022-08-23T15:08:47;3.70;;;1.50;;
3121;SDS011;1571;52.524;14.104;2022-08-23T15:11:16;4.30;;;1.30;;
3121;SDS011;1571;52.524;14.104;2022-08-23T15:14:05;2.20;;;1.53;;
3121;SDS011;1571;52.524;14.104;2022-08-23T15:16:34;3.20;;;2.20;;
3121;SDS011;1571;52.524;14.104;2022-08-23T15:19:02;1.73;;;1.63;;
3121;SDS011;1571;52.524;14.104;2022-08-23T15:21:32;1.70;;;1.60;;
3121;SDS011;1571;52.524;14.104;2022-08-23T15:24:00;2.17;;;1.23;;
3121;SDS011;1571;52.524;14.104;2022-08-23T15:26:28;2.97;;;1.70;;
3121;SDS011;1571;52.524;14.104;2022-08-23T15:28:58;5.60;;;1.97;;
3121;SDS011;1571;52.524;14.104;2022-08-23T15:31:28;2.23;;;2.00;;
3121;SDS011;1571;52.524;14.104;2022-08-23T15:33:57;1.60;;;1.37;;
3121;SDS011;1571;52.524;14.104;2022-08-23T15:36:26;4.50;;;1.90;;
3121;SDS011;1571;52.524;14.104;2022-08-23T15:38:54;3.50;;;1.77;;
3121;SDS011;1571;52.524;14.104;2022-08-23T15:41:22;2.90;;;1.23;;
3121;SDS011;1571;52.524;14.104;2022-08-23T15:43:51;3.67;;;1.40;;
3121;SDS011;1571;52.524;14.104;2022-08-23T15:46:20;2.50;;;1.20;;
3121;SDS011;1571;52.524;14.104;2022-08-23T15:48:52;1.83;;;1.43;;
3121;SDS011;1571;52.524;14.104;2022-08-23T15:51:22;4.83;;;1.43;;
3121;SDS011;1571;52.524;14.104;2022-08-23T15:53:51;2.37;;;1.60;;
3121;SDS011;1571;52.524;14.104;2022-08-23T15:56:24;2.70;;;1.53;;
3121;SDS011;1571;52.524;14.104;2022-08-23T15:58:58;2.47;;;1.33;;
3121;SDS011;1571;52.524;14.104;2022-08-23T16:01:26;1.97;;;1.57;;